createdAt,value
2022-09-01T00:03:00.686Z,8.52
2022-09-01T00:08:02.964Z,9.75
2022-09-01T00:13:07.102Z,9.68
2022-09-01T00:18:09.164Z,8.30
2022-09-01T00:23:11.561Z,8.23
2022-09-01T00:28:13.697Z,8.80
2022-09-01T00:33:15.925Z,8.25
2022-09-01T00:38:17.834Z,9.57
2022-09-01T00:43:47.250Z,9.38
2022-09-01T00:49:01.072Z,8.23
2022-09-01T00:54:05.417Z,9.10
2022-09-01T00:59:09.884Z,10.02
2022-09-01T01:04:14.963Z,8.77
2022-09-01T01:09:20.189Z,10.13
2022-09-01T01:14:22.072Z,11.68
2022-09-01T01:19:58.737Z,12.82
2022-09-01T01:25:02.447Z,11.27
2022-09-01T01:30:09.984Z,11.48
2022-09-01T01:35:14.960Z,10.07
2022-09-01T01:40:19.868Z,11.55
2022-09-01T01:55:58.461Z,11.90
2022-09-01T02:01:00.823Z,10.98
2022-09-01T02:06:04.737Z,14.10
2022-09-01T02:11:08.570Z,15.00
2022-09-01T02:16:12.968Z,16.33
2022-09-01T02:21:19.703Z,16.33
2022-09-01T02:26:23.816Z,16.45
2022-09-01T02:31:27.849Z,14.90
2022-09-01T02:36:32.963Z,14.65
2022-09-01T02:41:34.806Z,15.18
2022-09-01T02:46:37.883Z,14.48
2022-09-01T02:51:39.712Z,14.45
2022-09-01T02:56:42.059Z,15.48
2022-09-01T03:01:47.573Z,17.45
2022-09-01T03:06:52.587Z,16.40
2022-09-01T03:11:55.132Z,18.70
2022-09-01T03:16:57.728Z,17.77
2022-09-01T03:22:00.190Z,17.33
2022-09-01T03:27:02.228Z,19.95
2022-09-01T03:32:04.854Z,18.77
2022-09-01T03:37:07.925Z,19.23
2022-09-01T03:42:19.517Z,19.35
2022-09-01T03:47:22.127Z,20.48
2022-09-01T03:52:25.221Z,17.85
2022-09-01T03:57:29.437Z,20.42
2022-09-01T04:02:35.232Z,18.02
2022-09-01T04:07:37.975Z,18.73
2022-09-01T04:12:39.842Z,17.80
2022-09-01T04:18:00.492Z,19.45
2022-09-01T04:23:10.902Z,17.65
2022-09-01T04:28:17.682Z,18.57
2022-09-01T04:33:20.838Z,18.35
2022-09-01T04:38:24.802Z,18.02
2022-09-01T04:43:26.581Z,17.65
2022-09-01T04:48:28.481Z,15.70
2022-09-01T04:53:32.743Z,15.73
2022-09-01T04:58:35.016Z,14.93
2022-09-01T05:03:37.160Z,14.93
2022-09-01T05:08:40.204Z,14.65
2022-09-01T05:13:45.443Z,13.68
2022-09-01T05:18:49.552Z,16.20
2022-09-01T05:23:51.943Z,15.95
2022-09-01T05:28:58.592Z,15.38
2022-09-01T05:34:01.846Z,14.50
2022-09-01T05:39:06.233Z,14.57
2022-09-01T05:44:09.194Z,15.38
2022-09-01T05:49:16.917Z,14.60
2022-09-01T05:54:25.484Z,14.52
2022-09-01T05:59:31.416Z,13.40
2022-09-01T06:04:33.199Z,15.35
2022-09-01T06:09:43.018Z,12.20
2022-09-01T06:14:46.102Z,12.98
2022-09-01T06:19:48.213Z,14.00
2022-09-01T06:24:56.612Z,14.38
2022-09-01T06:30:02.935Z,12.60
2022-09-01T06:35:08.641Z,13.35
2022-09-01T06:40:17.346Z,11.98
2022-09-01T06:45:23.383Z,12.13
2022-09-01T06:55:49.636Z,11.88
2022-09-01T07:00:51.810Z,11.45
2022-09-01T07:06:03.874Z,10.55
2022-09-01T07:16:51.744Z,10.48
2022-09-01T07:22:09.707Z,10.77
2022-09-01T07:27:36.014Z,11.15
2022-09-01T07:32:47.227Z,9.70
2022-09-01T07:38:48.653Z,10.27
2022-09-01T07:43:27.287Z,10.88
2022-09-01T07:53:54.043Z,12.07
2022-09-01T07:58:57.676Z,9.07
2022-09-01T08:04:02.138Z,7.55
2022-09-01T08:09:06.717Z,8.02
2022-09-01T08:14:13.238Z,8.13
2022-09-01T08:19:18.028Z,8.90
2022-09-01T08:24:19.839Z,8.98
2022-09-01T08:29:21.686Z,7.75
2022-09-01T08:34:23.484Z,7.85
2022-09-01T08:39:25.332Z,7.63
2022-09-01T08:44:32.903Z,7.57
2022-09-01T08:49:44.316Z,8.00
2022-09-01T08:54:56.738Z,8.38
2022-09-01T08:59:58.954Z,9.00
2022-09-01T09:05:24.714Z,7.63
2022-09-01T09:10:38.122Z,7.45
2022-09-01T09:16:07.973Z,6.43
2022-09-01T09:21:25.272Z,7.07
2022-09-01T09:26:27.432Z,7.00
2022-09-01T09:31:43.038Z,6.45
2022-09-01T09:36:53.889Z,6.07
2022-09-01T09:42:13.453Z,5.55
2022-09-01T09:47:44.612Z,5.25
2022-09-01T09:52:48.149Z,5.35
2022-09-01T09:57:53.178Z,4.57
2022-09-01T10:03:04.708Z,4.30
2022-09-01T10:08:37.467Z,3.22
2022-09-01T10:13:39.348Z,3.47
2022-09-01T10:18:45.406Z,3.75
2022-09-01T10:23:47.181Z,3.45
2022-09-01T10:29:27.032Z,3.38
2022-09-01T10:34:35.291Z,3.20
2022-09-01T10:40:12.389Z,3.65
2022-09-01T10:45:21.727Z,4.15
2022-09-01T10:50:35.347Z,3.55
2022-09-01T10:55:44.028Z,3.13
2022-09-01T11:06:33.196Z,3.53
2022-09-01T11:11:40.258Z,3.95
2022-09-01T11:16:47.178Z,3.95
2022-09-01T11:22:09.388Z,3.33
2022-09-01T11:27:33.191Z,3.58
2022-09-01T11:32:38.201Z,3.50
2022-09-01T11:37:40.923Z,3.58
2022-09-01T11:42:46.693Z,3.88
2022-09-01T11:48:06.188Z,3.55
2022-09-01T11:53:09.105Z,3.45
2022-09-01T11:58:30.853Z,3.30
2022-09-01T12:03:32.986Z,2.85
2022-09-01T12:08:38.996Z,3.08
2022-09-01T12:13:41.606Z,2.45
2022-09-01T12:18:51.257Z,2.70
2022-09-01T12:23:53.951Z,2.65
2022-09-01T12:28:56.957Z,2.60
2022-09-01T12:33:58.754Z,2.20
2022-09-01T12:39:33.957Z,2.17
2022-09-01T12:44:39.580Z,2.20
2022-09-01T12:49:50.069Z,2.30
2022-09-01T12:54:58.598Z,2.47
2022-09-01T13:00:15.522Z,2.30
2022-09-01T13:05:42.209Z,3.33
2022-09-01T13:10:47.840Z,2.55
2022-09-01T13:15:53.075Z,2.70
2022-09-01T13:20:56.443Z,2.15
2022-09-01T13:26:01.345Z,2.58
2022-09-01T13:36:45.457Z,2.25
2022-09-01T13:41:49.438Z,2.67
2022-09-01T13:52:13.280Z,2.28
2022-09-01T13:57:16.524Z,2.10
2022-09-01T14:02:18.895Z,2.40
2022-09-01T14:07:21.996Z,2.33
2022-09-01T14:12:24.271Z,2.47
2022-09-01T14:17:26.374Z,2.45
2022-09-01T14:22:28.311Z,3.38
2022-09-01T14:27:30.220Z,2.53
2022-09-01T14:32:32.110Z,2.05
2022-09-01T14:37:34.867Z,1.95
2022-09-01T14:42:37.218Z,1.80
2022-09-01T14:47:39.432Z,2.08
2022-09-01T14:52:41.407Z,2.15
2022-09-01T14:57:43.219Z,2.13
2022-09-01T15:02:45.866Z,2.10
2022-09-01T15:07:47.852Z,1.90
2022-09-01T15:12:49.847Z,2.00
2022-09-01T15:17:51.604Z,1.83
2022-09-01T15:22:53.476Z,1.50
2022-09-01T15:27:55.362Z,2.85
2022-09-01T15:32:57.218Z,1.70
2022-09-01T15:37:59.350Z,2.00
2022-09-01T15:43:01.179Z,1.90
2022-09-01T15:48:03.145Z,1.85
2022-09-01T15:53:08.546Z,2.22
2022-09-01T15:58:12.972Z,2.10
2022-09-01T16:03:15.098Z,2.03
2022-09-01T16:08:16.942Z,2.00
2022-09-01T16:13:18.996Z,2.50
2022-09-01T16:18:42.372Z,2.10
2022-09-01T16:23:49.829Z,2.28
2022-09-01T16:28:56.316Z,2.50
2022-09-01T16:34:05.188Z,2.40
2022-09-01T16:39:11.855Z,2.35
2022-09-01T16:44:23.833Z,2.60
2022-09-01T16:49:43.427Z,2.50
2022-09-01T16:55:19.906Z,2.85
2022-09-01T17:00:23.114Z,2.80
2022-09-01T17:05:32.476Z,2.00
2022-09-01T17:10:38.912Z,2.35
2022-09-01T17:15:41.099Z,1.70
2022-09-01T17:20:48.265Z,1.90
2022-09-01T17:26:19.217Z,2.10
2022-09-01T17:31:51.766Z,2.15
2022-09-01T17:37:28.918Z,2.70
2022-09-01T17:42:40.792Z,2.60
2022-09-01T17:48:07.685Z,2.10
2022-09-01T17:53:26.092Z,2.17
2022-09-01T17:58:43.123Z,2.00
2022-09-01T18:04:13.668Z,2.70
2022-09-01T18:09:18.301Z,2.40
2022-09-01T18:14:32.724Z,1.90
2022-09-01T18:19:39.346Z,2.55
2022-09-01T18:24:51.298Z,2.42
2022-09-01T18:29:53.289Z,2.65
2022-09-01T18:35:00.964Z,2.35
2022-09-01T18:40:11.072Z,3.00
2022-09-01T18:45:48.175Z,2.53
2022-09-01T18:51:00.055Z,2.30
2022-09-01T18:56:36.914Z,2.40
2022-09-01T19:01:53.066Z,2.33
2022-09-01T19:07:08.055Z,2.22
2022-09-01T19:12:14.191Z,2.35
2022-09-01T19:17:40.302Z,2.42
2022-09-01T19:23:13.733Z,2.42
2022-09-01T19:28:20.423Z,2.47
2022-09-01T19:33:29.262Z,2.15
2022-09-01T19:38:31.681Z,2.38
2022-09-01T19:43:36.290Z,2.50
2022-09-01T19:48:42.968Z,2.97
2022-09-01T19:53:47.891Z,2.58
2022-09-01T19:58:53.115Z,2.88
2022-09-01T20:04:00.935Z,3.00
2022-09-01T20:09:24.438Z,3.67
2022-09-01T20:14:26.137Z,3.00
2022-09-01T20:19:46.722Z,3.00
2022-09-01T20:24:48.881Z,3.83
2022-09-01T20:30:07.579Z,3.28
2022-09-01T20:35:23.596Z,2.92
2022-09-01T20:40:40.134Z,3.10
2022-09-01T20:45:42.732Z,3.85
2022-09-01T20:50:53.434Z,3.47
2022-09-01T20:56:09.029Z,3.23
2022-09-01T21:01:26.908Z,5.53
2022-09-01T21:06:44.759Z,4.07
2022-09-01T21:12:08.228Z,3.50
2022-09-01T21:17:28.124Z,3.35
2022-09-01T21:22:30.137Z,4.43
2022-09-01T21:27:51.229Z,3.70
2022-09-01T21:32:53.913Z,3.85
2022-09-01T21:37:55.648Z,4.00
2022-09-01T21:43:06.320Z,3.80
2022-09-01T21:48:08.984Z,4.73
2022-09-01T21:53:10.949Z,4.85
2022-09-01T21:58:12.684Z,5.90
2022-09-01T22:03:14.511Z,5.30
2022-09-01T22:08:17.581Z,4.15
2022-09-01T22:13:21.655Z,5.40
2022-09-01T22:18:23.572Z,4.95
2022-09-01T22:23:25.458Z,4.82
2022-09-01T22:28:27.365Z,4.18
2022-09-01T22:33:29.296Z,5.05
2022-09-01T22:38:32.502Z,4.57
2022-09-01T22:43:34.235Z,5.07
2022-09-01T22:48:36.059Z,5.90
2022-09-01T22:53:39.648Z,5.20
2022-09-01T22:58:42.360Z,4.75
2022-09-01T23:03:44.881Z,4.38
2022-09-01T23:08:47.230Z,4.85
2022-09-01T23:13:49.006Z,4.80
2022-09-01T23:18:51.758Z,7.13
2022-09-01T23:23:58.728Z,4.90
2022-09-01T23:29:01.756Z,7.18
2022-09-01T23:34:06.095Z,7.13
2022-09-01T23:39:08.176Z,7.22
2022-09-01T23:44:11.437Z,5.07
2022-09-01T23:49:15.888Z,6.85
2022-09-01T23:54:17.912Z,4.97
2022-09-01T23:59:19.724Z,6.22
